Airfield :
LOGIN :

Register | Disclaimer

   EN    FR    IT 

 










Legend :    VFR   Marginal VFR   IFR   Intensive IFR   Very Intensive IFR
Visi :
Ceiling :
>= 8 km
>= 3000ft
5 to 8 km
1000 to 3000 ft
1500m to 5 km
500 to 1000 ft
800 to 1500m
200 to 500 ft
< 800m
< 200 ft
Symbols :   Thunderstorms  Fog  Heavy snow  Heavy precipitations  Wind > 20 kt
SIGMETs :     Misc.  Thunderstorms  Icing  Turbulence  Mountain Waves  Volcanic Ashes







- Airport Elevation : 37 ft


EHVL - Vlieland Heliport

CURRENT METAR :
  • 160855Z AUTO 33018KT 9999 FEW045 05/02 Q1008 BLU

EXPIRED METARs :
  • 160848Z AUTO 33018KT 9999 FEW015CB SCT076 05/02 Q1008 BLU
  • 160832Z AUTO 32026KT 9000 -RA FEW014 FEW015CB SCT025 BKN029 04/02 Q1008 BLU
  • 160826Z AUTO 33027KT 7000 -RA FEW015CB SCT016 BKN025 05/03 Q1007 WHT
  • 160820Z AUTO 32023KT 9999 FEW015CB SCT025 05/02 Q1007 BLU
  • 160804Z AUTO 32023KT 9999 FEW015CB SCT027 BKN031 05/02 Q1007 BLU
  • 160755Z AUTO 31017KT 9999 FEW015CB BKN022 05/03 Q1007 WHT
  • 160748Z AUTO 31015KT 9999 FEW015CB 05/03 Q1007 BLU
  • 160735Z AUTO 32014KT 9999 FEW015CB SCT054 04/02 Q1007 BLU
  • 160731Z AUTO 33015G26KT 9999 FEW001 SCT015CB BKN044 04/02 Q1007 WHT
  • 160718Z AUTO 34025KT 9999 -RA FEW015CB SCT023 BKN037 04/02 Q1007 WHT
  • 160705Z AUTO 33024KT 9999 FEW015CB SCT026 BKN033 05/01 Q1007 BLU
  • 160701Z AUTO 33022KT 9999 FEW015CB SCT024 BKN032 05/02 Q1007 WHT
  • 160655Z AUTO 33021KT 9999 FEW015CB SCT033 BKN040 05/02 Q1007 BLU
  • 160647Z AUTO 33022KT 9999 FEW015CB SCT037 BKN043 05/02 Q1007 BLU
  • 160636Z AUTO 33023KT 9999 FEW015CB SCT024 BKN030 05/02 Q1006 WHT
  • 160625Z AUTO 33019KT 9999 FEW015CB 05/02 Q1006 RERA BLU
  • 160611Z AUTO 35016KT 9000 BR FEW001 FEW015CB SCT026 BKN030 05/03 Q1006 BLU
  • 160604Z AUTO 35018KT 8000 +RA FEW001 FEW015CB SCT023 BKN027 04/02 Q1006 WHT

Expired Forecast.
No reported NOTAMs for that airfield.



MET'MAP, your aeronautical weather chart ! - Copyright ORBIFLY December 2007 - Disclaimer

ORBIFLY MET'MAP TEAM :

Programming & Development : Alexandra Zaïnal
Concept & Development : Baudouin d'Aumeries
Co-Development & Prog : Marc-Olivier Méhu
Technical & hardware support : Manuel Goepfert

Contact : metmap@orbifly.com




SOURCES & CREDITS :

   NOAA